Historique des mesures à Cassis (13260), France
Quotidien Résumé Septembre 2, 2017 Unités:  Métrique    US   Métrique/US
« Précédent (Jour)
Suivant (Jour) »
Quotidien Hebdomadaire Mensuel Annuel Période au choix
  Maximum: Minimum: Moyenne:
Température: TemperatureC °C 16.8 °C 18.8 °C
Point de rosée: DewpointC °C 7.3 °C 7.9 °C
Humidité: Humidity % 39 % 46 %
Vitesse du vent: 0 km/h 18.7 km/h 31.9 km/h
Rafales: 0 km/h - -
Vent:- - South
Pression: PressurehPa hPa 1009.4 hPa -
Précipitations: 0.0 mm    
Historical Graphs
 
 
Mesures pour : Septembre 2, 2017
Heure Temperature Point de rosée Pression Vent Vitesse du vent Rafales Humidité Pluie (par heure) Conditions
TemperatureC °C DewpointC °C PressurehPa hPa Calm     Humidity % HourlyPrecipMM mm SoftwareType W/m2
00:11 20.4 °C 8.3 °C 1011.1 hPa NNW 18.7 km/h 40.7 km/h 46 % 0.0 mm open2300-1.11 W/m2
01:11 19.8 °C 8.4 °C 1011.4 hPa North 23.8 km/h 41.2 km/h 48 % 0.0 mm open2300-1.11 W/m2
02:11 19.1 °C 7.8 °C 1011.1 hPa North 19.6 km/h 23 km/h 48 % 0.0 mm open2300-1.11 W/m2
03:11 18.4 °C 7.8 °C 1010.7 hPa NNW 41.2 km/h 41.2 km/h 50 % 0.0 mm open2300-1.11 W/m2
04:11 17.9 °C 8.4 °C 1010.7 hPa NNW 20.9 km/h 39.9 km/h 54 % 0.0 mm open2300-1.11 W/m2
05:11 17.4 °C 8.5 °C 1010.7 hPa North 21.6 km/h 28.5 km/h 56 % 0.0 mm open2300-1.11 W/m2
06:11 17.1 °C 8.5 °C 1010.7 hPa North 18.7 km/h 35.2 km/h 57 % 0.0 mm open2300-1.11 W/m2
07:11 16.8 °C 8.5 °C 1010.4 hPa North 47.3 km/h 57.3 km/h 58 % 0.0 mm open2300-1.11 W/m2
08:11 16.8 °C 8.8 °C 1010.7 hPa WNW 33.6 km/h 50.5 km/h 59 % 0.0 mm open2300-1.11 W/m2
09:11 17.2 °C 8.8 °C 1010.4 hPa NNW 39.9 km/h 52.8 km/h 58 % 0.0 mm open2300-1.11 W/m2
10:11 18.1 °C 9.4 °C 1010.4 hPa NW 29 km/h 82.9 km/h 57 % 0.0 mm open2300-1.11 W/m2
11:11 19.7 °C 9.3 °C 1010.4 hPa NW 24.8 km/h 41.2 km/h 51 % 0.0 mm open2300-1.11 W/m2
12:11 21.0 °C 9.2 °C 1010.4 hPa NW 51 km/h 51 km/h 47 % 0.0 mm open2300-1.11 W/m2
13:11 21.6 °C 9.1 °C 1010.0 hPa NNW 33.2 km/h 49.2 km/h 45 % 0.0 mm open2300-1.11 W/m2
14:11 21.9 °C 8.4 °C 1009.7 hPa NE 18.7 km/h 45.4 km/h 42 % 0.0 mm open2300-1.11 W/m2
15:11 22.3 °C 8.1 °C 1009.4 hPa NNW 38.8 km/h 39.9 km/h 40 % 0.0 mm open2300-1.11 W/m2
16:11 22.3 °C 7.7 °C 1009.4 hPa NNW 35.2 km/h 47.3 km/h 39 % 0.0 mm open2300-1.11 W/m2
17:11 22.1 °C 7.5 °C 1009.4 hPa NNE 34.1 km/h 66 km/h 39 % 0.0 mm open2300-1.11 W/m2
18:11 21.9 °C 7.3 °C 1009.4 hPa North 37 km/h 47.3 km/h 39 % 0.0 mm open2300-1.11 W/m2
19:11 21.3 °C 7.5 °C 1009.4 hPa North 40.7 km/h 52 km/h 41 % 0.0 mm open2300-1.11 W/m2
20:11 20.6 °C 7.5 °C 1009.7 hPa North 44.1 km/h 51.5 km/h 43 % 0.0 mm open2300-1.11 W/m2
21:11 19.8 °C 7.5 °C 1010.7 hPa NNE 40.7 km/h 40.7 km/h 45 % 0.0 mm open2300-1.11 W/m2
22:11 19.2 °C 7.6 °C 1010.7 hPa NNW 42.2 km/h 44.1 km/h 47 % 0.0 mm open2300-1.11 W/m2
23:11 18.3 °C 8.2 °C 1010.4 hPa NW 39.9 km/h 49.2 km/h 52 % 0.0 mm open2300-1.11 W/m2
Observations météo à CASSIS
WU-History script by Weather Underground - 1 mb